createdAt,value
2022-09-25T00:00:50.540Z,8.27
2022-09-25T00:05:53.221Z,7.80
2022-09-25T00:10:54.911Z,8.52
2022-09-25T00:15:57.055Z,8.93
2022-09-25T00:21:02.347Z,8.50
2022-09-25T00:26:05.298Z,8.50
2022-09-25T00:31:08.349Z,8.73
2022-09-25T00:36:11.105Z,9.25
2022-09-25T00:41:13.104Z,9.80
2022-09-25T00:46:36.136Z,9.37
2022-09-25T00:51:54.987Z,10.60
2022-09-25T00:56:59.262Z,10.38
2022-09-25T01:02:01.151Z,9.80
2022-09-25T01:07:02.927Z,11.13
2022-09-25T01:12:04.859Z,11.03
2022-09-25T01:17:32.839Z,11.83
2022-09-25T01:22:41.739Z,11.43
2022-09-25T01:28:03.481Z,11.43
2022-09-25T01:33:23.734Z,12.52
2022-09-25T01:38:54.484Z,12.50
2022-09-25T01:44:08.432Z,12.17
2022-09-25T01:49:33.861Z,12.65
2022-09-25T01:54:41.758Z,11.37
2022-09-25T02:00:11.410Z,12.05
2022-09-25T02:05:36.255Z,12.63
2022-09-25T02:10:49.014Z,13.07
2022-09-25T02:15:55.208Z,13.18
2022-09-25T02:21:25.360Z,13.00
2022-09-25T02:26:30.603Z,13.70
2022-09-25T02:31:40.390Z,13.25
2022-09-25T02:36:42.667Z,13.20
2022-09-25T02:41:50.034Z,12.40
2022-09-25T02:47:00.956Z,13.23
2022-09-25T02:52:12.303Z,12.90
2022-09-25T02:57:22.913Z,12.38
2022-09-25T03:02:27.905Z,12.73
2022-09-25T03:07:29.703Z,12.75
2022-09-25T03:12:36.493Z,13.52
2022-09-25T03:17:38.901Z,12.30
2022-09-25T03:22:40.560Z,12.88
2022-09-25T03:27:42.214Z,13.88
2022-09-25T03:32:44.053Z,13.50
2022-09-25T03:37:45.703Z,13.52
2022-09-25T03:42:47.396Z,13.07
2022-09-25T03:47:49.082Z,11.48
2022-09-25T03:52:50.788Z,12.25
2022-09-25T03:57:53.118Z,12.93
2022-09-25T04:02:54.849Z,12.77
2022-09-25T04:07:56.516Z,13.03
2022-09-25T04:12:58.620Z,13.73
2022-09-25T04:18:05.786Z,13.98
2022-09-25T04:23:07.974Z,13.17
2022-09-25T04:28:09.661Z,13.50
2022-09-25T04:33:11.302Z,13.67
2022-09-25T04:38:13.022Z,14.55
2022-09-25T04:43:15.070Z,14.48
2022-09-25T04:48:16.861Z,14.17
2022-09-25T04:53:18.667Z,12.93
2022-09-25T04:58:20.935Z,14.10
2022-09-25T05:03:22.691Z,13.20
2022-09-25T05:08:24.539Z,12.95
2022-09-25T05:13:26.216Z,14.25
2022-09-25T05:18:27.890Z,13.23
2022-09-25T05:23:30.204Z,14.07
2022-09-25T05:28:32.933Z,14.80
2022-09-25T05:33:35.402Z,13.70
2022-09-25T05:38:38.827Z,14.50
2022-09-25T05:43:42.607Z,14.25
2022-09-25T05:48:44.347Z,13.40
2022-09-25T05:53:46.140Z,13.45
2022-09-25T05:58:47.892Z,13.95
2022-09-25T06:03:49.564Z,14.57
2022-09-25T06:08:54.082Z,14.55
2022-09-25T06:13:55.748Z,13.83
2022-09-25T06:18:57.411Z,14.23
2022-09-25T06:23:59.073Z,14.10
2022-09-25T06:29:03.224Z,14.18
2022-09-25T06:34:05.537Z,14.50
2022-09-25T06:39:07.183Z,13.65
2022-09-25T06:44:08.853Z,13.60
2022-09-25T06:49:12.230Z,13.00
2022-09-25T06:54:14.237Z,14.20
2022-09-25T06:59:16.374Z,13.60
2022-09-25T07:04:18.037Z,12.82
2022-09-25T07:09:19.726Z,13.00
2022-09-25T07:14:21.371Z,11.68
2022-09-25T07:19:27.687Z,11.90
2022-09-25T07:24:29.565Z,11.70
2022-09-25T07:29:31.232Z,11.25
2022-09-25T07:34:35.246Z,11.82
2022-09-25T07:39:36.932Z,11.17
2022-09-25T07:44:38.828Z,11.23
2022-09-25T07:49:41.016Z,11.27
2022-09-25T07:54:42.773Z,9.65
2022-09-25T07:59:44.475Z,9.55
2022-09-25T08:04:46.145Z,9.88
2022-09-25T08:09:47.807Z,11.05
2022-09-25T08:14:49.881Z,10.95
2022-09-25T08:19:51.600Z,10.43
2022-09-25T08:24:53.387Z,10.05
2022-09-25T08:29:55.068Z,9.80
2022-09-25T08:34:56.752Z,10.40
2022-09-25T08:39:59.830Z,10.00
2022-09-25T08:45:20.429Z,9.93
2022-09-25T08:50:25.911Z,9.93
2022-09-25T08:55:31.011Z,10.50
2022-09-25T09:00:32.711Z,9.88
2022-09-25T09:05:37.401Z,9.35
2022-09-25T09:11:22.789Z,9.80
2022-09-25T09:16:49.689Z,9.27
2022-09-25T09:22:03.260Z,8.98
2022-09-25T09:27:34.279Z,7.97
2022-09-25T09:32:51.119Z,7.20
2022-09-25T09:38:16.575Z,7.38
2022-09-25T09:43:21.311Z,7.77
2022-09-25T09:48:33.732Z,7.03
2022-09-25T09:53:46.443Z,6.07
2022-09-25T09:58:58.900Z,5.63
2022-09-25T10:04:17.800Z,6.55
2022-09-25T10:09:19.631Z,6.47
2022-09-25T10:14:26.136Z,5.72
2022-09-25T10:19:31.277Z,6.20
2022-09-25T10:24:49.810Z,5.40
2022-09-25T10:30:12.261Z,6.10
2022-09-25T10:35:16.756Z,5.60
2022-09-25T10:40:38.076Z,6.28
2022-09-25T10:45:40.331Z,5.78
2022-09-25T10:50:42.184Z,5.67
2022-09-25T10:55:43.920Z,5.43
2022-09-25T11:00:51.802Z,4.93
2022-09-25T11:06:21.963Z,4.78
2022-09-25T11:11:24.043Z,7.30
2022-09-25T11:16:53.330Z,5.27
2022-09-25T11:22:06.812Z,4.72
2022-09-25T11:27:33.076Z,4.10
2022-09-25T11:33:04.280Z,3.67
2022-09-25T11:38:25.553Z,4.25
2022-09-25T11:44:20.657Z,4.35
2022-09-25T11:49:28.155Z,4.20
2022-09-25T11:54:38.964Z,4.28
2022-09-25T11:59:46.769Z,4.07
2022-09-25T12:05:04.009Z,3.40
2022-09-25T12:10:44.154Z,4.07
2022-09-25T12:16:26.951Z,3.42
2022-09-25T12:21:44.782Z,3.03
2022-09-25T12:27:02.436Z,3.40
2022-09-25T12:32:22.833Z,3.40
2022-09-25T12:37:33.984Z,2.55
2022-09-25T12:42:41.235Z,3.30
2022-09-25T12:48:04.271Z,2.75
2022-09-25T12:53:30.753Z,3.65
2022-09-25T12:59:00.064Z,2.27
2022-09-25T13:04:43.000Z,2.70
2022-09-25T13:09:48.152Z,3.15
2022-09-25T13:15:27.855Z,2.55
2022-09-25T13:20:35.456Z,1.60
2022-09-25T13:25:53.876Z,3.13
2022-09-25T13:31:08.938Z,3.70
2022-09-25T13:36:23.982Z,3.50
2022-09-25T13:41:26.388Z,3.45
2022-09-25T13:46:28.190Z,2.30
2022-09-25T13:51:35.622Z,2.60
2022-09-25T13:56:40.500Z,2.78
2022-09-25T14:01:48.155Z,2.35
2022-09-25T14:06:54.151Z,2.45
2022-09-25T14:12:08.843Z,2.35
2022-09-25T14:17:16.188Z,2.45
2022-09-25T14:22:35.591Z,2.70
2022-09-25T14:27:37.421Z,2.35
2022-09-25T14:33:10.516Z,2.03
2022-09-25T14:38:27.276Z,2.63
2022-09-25T14:43:47.031Z,1.92
2022-09-25T14:49:13.854Z,2.20
2022-09-25T14:54:19.406Z,1.88
2022-09-25T14:59:32.045Z,1.90
2022-09-25T15:04:34.456Z,2.20
2022-09-25T15:09:37.624Z,2.17
2022-09-25T15:14:39.485Z,2.05
2022-09-25T15:19:44.921Z,1.95
2022-09-25T15:24:51.731Z,1.73
2022-09-25T15:29:54.545Z,1.88
2022-09-25T15:35:15.215Z,2.47
2022-09-25T15:40:16.921Z,2.50
2022-09-25T15:45:40.883Z,2.63
2022-09-25T15:50:44.569Z,3.13
2022-09-25T15:55:46.569Z,2.87
2022-09-25T16:01:01.240Z,3.00
2022-09-25T16:06:03.365Z,2.80
2022-09-25T16:11:26.203Z,3.08
2022-09-25T16:16:29.971Z,2.50
2022-09-25T16:21:33.680Z,3.40
2022-09-25T16:26:42.871Z,2.50
2022-09-25T16:31:45.351Z,3.67
2022-09-25T16:36:47.333Z,3.58
2022-09-25T16:41:49.605Z,3.65
2022-09-25T16:47:00.510Z,3.75
2022-09-25T16:52:06.032Z,4.00
2022-09-25T16:57:12.263Z,3.80
2022-09-25T17:02:37.706Z,3.93
2022-09-25T17:07:39.441Z,4.30
2022-09-25T17:12:41.911Z,4.10
2022-09-25T17:17:43.756Z,4.32
2022-09-25T17:22:45.430Z,4.22
2022-09-25T17:27:47.124Z,4.43
2022-09-25T17:32:49.545Z,4.27
2022-09-25T17:37:51.248Z,4.00
2022-09-25T17:42:52.926Z,4.03
2022-09-25T17:47:54.582Z,4.97
2022-09-25T17:52:56.824Z,4.40
2022-09-25T17:58:00.255Z,5.05
2022-09-25T18:03:02.522Z,4.97
2022-09-25T18:08:04.297Z,5.13
2022-09-25T18:13:07.581Z,4.55
2022-09-25T18:18:09.648Z,5.43
2022-09-25T18:23:11.487Z,5.05
2022-09-25T18:28:15.135Z,4.95
2022-09-25T18:33:18.529Z,5.43
2022-09-25T18:38:20.730Z,5.03
2022-09-25T18:43:22.929Z,4.60
2022-09-25T18:48:25.179Z,5.18
2022-09-25T18:53:29.372Z,5.10
2022-09-25T18:58:33.406Z,5.43
2022-09-25T19:03:40.646Z,5.40
2022-09-25T19:08:43.383Z,4.95
2022-09-25T19:13:46.157Z,5.85
2022-09-25T19:18:47.851Z,6.05
2022-09-25T19:23:52.976Z,5.07
2022-09-25T19:28:59.221Z,5.38
2022-09-25T19:34:07.680Z,5.60
2022-09-25T19:39:11.235Z,5.60
2022-09-25T19:44:15.444Z,5.80
2022-09-25T19:49:18.188Z,5.82
2022-09-25T19:54:21.181Z,6.57
2022-09-25T19:59:23.500Z,5.87
2022-09-25T20:04:27.367Z,5.50
2022-09-25T20:09:29.740Z,5.38
2022-09-25T20:14:32.013Z,6.20
2022-09-25T20:19:35.389Z,6.05
2022-09-25T20:24:38.950Z,6.53
2022-09-25T20:29:43.106Z,6.53
2022-09-25T20:34:47.930Z,5.80
2022-09-25T20:39:49.616Z,6.85
2022-09-25T20:44:53.207Z,5.97
2022-09-25T20:49:56.003Z,5.95
2022-09-25T20:54:58.214Z,6.45
2022-09-25T21:00:01.652Z,6.53
2022-09-25T21:05:04.137Z,7.13
2022-09-25T21:10:08.157Z,6.82
2022-09-25T21:15:09.831Z,7.07
2022-09-25T21:20:11.515Z,6.93
2022-09-25T21:25:14.322Z,7.28
2022-09-25T21:30:16.037Z,6.47
2022-09-25T21:35:17.752Z,6.97
2022-09-25T21:40:19.492Z,7.53
2022-09-25T21:45:21.419Z,7.22
2022-09-25T21:50:23.704Z,7.95
2022-09-25T21:55:25.632Z,7.13
2022-09-25T22:00:27.302Z,7.88
2022-09-25T22:05:28.971Z,7.57
2022-09-25T22:10:30.623Z,7.90
2022-09-25T22:15:32.351Z,7.43
2022-09-25T22:20:37.459Z,7.23
2022-09-25T22:25:39.144Z,7.95
2022-09-25T22:30:40.895Z,7.70
2022-09-25T22:35:42.630Z,7.55
2022-09-25T22:40:44.312Z,7.70
2022-09-25T22:45:50.517Z,7.50
2022-09-25T22:50:57.678Z,7.43
2022-09-25T22:56:12.969Z,8.05
2022-09-25T23:01:19.263Z,7.22
2022-09-25T23:06:21.118Z,7.72
2022-09-25T23:11:24.022Z,7.90
2022-09-25T23:16:26.131Z,7.88
2022-09-25T23:21:29.723Z,7.80
2022-09-25T23:26:31.799Z,8.15
2022-09-25T23:31:33.698Z,9.13
2022-09-25T23:36:35.405Z,8.13
2022-09-25T23:41:39.531Z,9.05
2022-09-25T23:46:43.153Z,8.98
2022-09-25T23:51:44.875Z,9.23
2022-09-25T23:56:46.579Z,8.77
